Ifestos I — SV4139 — position and weather

sailwx.info

Track history (hours):
 
Tides and Currents Weather Stations Pressure Air Temp Water Temp Dewpoint Dewpoint Depression Visibility Wind Speed Wind Dir Waves Ship Positions

Ifestos I

Last reported at 2016-Sep-28 19:33 UTC. Time now 2016-Sep-28 22:17 UTC.
Position N 37°57' E 023°37'.

Length 30 m.

Type: Tug. MMSI: 237070500.

Date/timePositionNaut miles runAvg speedWind from/ knotsBaromVisibWave heightAir tempDewpointWater temp
2016-Sep-28 19:33N 37°57' E 023°37'0 0.0
2016-Sep-28 16:33N 37°57' E 023°37'0 0.0
2016-Sep-28 15:33N 37°57' E 023°37'0 0.0
2016-Sep-28 12:33N 37°57' E 023°37'1 0.2
2016-Sep-28 08:33N 37°57' E 023°36'1 0.1
2016-Sep-28 03:33N 37°57' E 023°37'0 0.0
2016-Sep-27 10:33N 37°58' E 023°37'0 0.0
2016-Sep-26 13:33N 37°57' E 023°37'0 0.0
2016-Sep-26 11:33N 37°57' E 023°37'1 0.5
2016-Sep-26 08:33N 37°57' E 023°38'0 0.0
2016-Sep-26 02:33N 37°56' E 023°38'0 0.4
2016-Sep-26 01:33N 37°56' E 023°37'1 1.4
2016-Sep-26 00:33N 37°57' E 023°37'0 0.0
2016-Sep-25 21:33N 37°57' E 023°37'0 0.0
2016-Sep-25 17:33N 37°57' E 023°37'2 2.3
2016-Sep-25 16:33N 37°57' E 023°34'4 4.3
2016-Sep-25 15:33N 38°01' E 023°36'0 0.0
2016-Sep-25 14:33N 38°01' E 023°36'0 0.0
2016-Sep-25 12:33N 38°01' E 023°36'0 0.0
2016-Sep-25 11:33N 38°01' E 023°36'0 0.0
2016-Sep-25 10:33N 38°01' E 023°36'0 0.0
2016-Sep-25 09:33N 38°01' E 023°36'0 0.0
2016-Sep-25 07:34N 38°01' E 023°36'0 0.0
2016-Sep-25 04:33N 38°01' E 023°36'0 0.0
2016-Sep-25 00:33N 38°01' E 023°35'0 0.0
2016-Sep-24 22:33N 38°01' E 023°36'0 0.0
2016-Sep-24 21:33N 38°01' E 023°36'0 0.0
2016-Sep-24 19:33N 38°01' E 023°35'0 0.0
2016-Sep-24 18:33N 38°01' E 023°35'0 0.0
2016-Sep-24 17:34N 38°01' E 023°35'0 0.0
2016-Sep-24 16:33N 38°01' E 023°35'4 2.0
2016-Sep-24 14:33N 37°57' E 023°36'0 0.1
2016-Sep-24 12:33N 37°57' E 023°37'0 0.0
2016-Sep-24 10:33N 37°57' E 023°37'0 0.0
2016-Sep-24 09:33N 37°57' E 023°37'2 0.3
2016-Sep-24 03:33N 37°56' E 023°38'2 0.2
2016-Sep-23 17:33N 37°57' E 023°37'0 0.0
2016-Sep-23 16:33N 37°57' E 023°37'7 6.5
2016-Sep-23 15:33N 38°02' E 023°30'2 0.8
2016-Sep-23 13:33N 38°02' E 023°32'1 0.3
2016-Sep-23 09:33N 38°02' E 023°31'6 2.1
2016-Sep-23 06:33N 37°57' E 023°37'0 0.0
2016-Sep-22 12:16N 37°57' E 023°37'0 0.0
2016-Sep-21 19:29N 37°57' E 023°37'4 1.3
2016-Sep-21 16:34N 38°00' E 023°33'2 0.3
2016-Sep-21 09:33N 37°58' E 023°33'3 3.2
2016-Sep-21 08:33N 37°57' E 023°37'0 0.0
2016-Sep-21 05:33N 37°57' E 023°37'0 0.2
2016-Sep-21 03:33N 37°57' E 023°36'0 0.3
2016-Sep-21 02:33N 37°57' E 023°37'0 0.0
2016-Sep-19 13:19N 37°57' E 023°37'0 0.0
2016-Sep-19 12:33N 37°57' E 023°37'0 0.0
2016-Sep-19 11:33N 37°57' E 023°37'0 0.0
2016-Sep-19 09:33N 37°57' E 023°37'2 1.2
2016-Sep-19 07:33N 37°57' E 023°34'2 2.1
2016-Sep-19 06:33N 37°57' E 023°36'0 0.2
2016-Sep-19 03:33N 37°57' E 023°37'0 0.1
2016-Sep-19 02:33N 37°57' E 023°37'0 0.0
2016-Sep-19 00:33N 37°57' E 023°37'0 0.0
2016-Sep-18 19:33N 37°57' E 023°37'  
Track history (hours):
 
Tides and Currents Weather Stations Pressure Air Temp Water Temp Dewpoint Dewpoint Depression Visibility Wind Speed Wind Dir Waves Ship Positions

Ifestos I

Last reported at 2016-Sep-28 19:33 UTC. Time now 2016-Sep-28 22:17 UTC.
Position N 37°57' E 023°37'.

Length 30 m.

Type: Tug. MMSI: 237070500.

Date/timePositionNaut miles runAvg speedWind from/ knotsBaromVisibWave heightAir tempDewpointWater temp
2016-Sep-28 19:33N 37°57' E 023°37'0 0.0
2016-Sep-28 16:33N 37°57' E 023°37'0 0.0
2016-Sep-28 15:33N 37°57' E 023°37'0 0.0
2016-Sep-28 12:33N 37°57' E 023°37'1 0.2
2016-Sep-28 08:33N 37°57' E 023°36'1 0.1
2016-Sep-28 03:33N 37°57' E 023°37'0 0.0
2016-Sep-27 10:33N 37°58' E 023°37'0 0.0
2016-Sep-26 13:33N 37°57' E 023°37'0 0.0
2016-Sep-26 11:33N 37°57' E 023°37'1 0.5
2016-Sep-26 08:33N 37°57' E 023°38'0 0.0
2016-Sep-26 02:33N 37°56' E 023°38'0 0.4
2016-Sep-26 01:33N 37°56' E 023°37'1 1.4
2016-Sep-26 00:33N 37°57' E 023°37'0 0.0
2016-Sep-25 21:33N 37°57' E 023°37'0 0.0
2016-Sep-25 17:33N 37°57' E 023°37'2 2.3
2016-Sep-25 16:33N 37°57' E 023°34'4 4.3
2016-Sep-25 15:33N 38°01' E 023°36'0 0.0
2016-Sep-25 14:33N 38°01' E 023°36'0 0.0
2016-Sep-25 12:33N 38°01' E 023°36'0 0.0
2016-Sep-25 11:33N 38°01' E 023°36'0 0.0
2016-Sep-25 10:33N 38°01' E 023°36'0 0.0
2016-Sep-25 09:33N 38°01' E 023°36'0 0.0
2016-Sep-25 07:34N 38°01' E 023°36'0 0.0
2016-Sep-25 04:33N 38°01' E 023°36'0 0.0
2016-Sep-25 00:33N 38°01' E 023°35'0 0.0
2016-Sep-24 22:33N 38°01' E 023°36'0 0.0
2016-Sep-24 21:33N 38°01' E 023°36'0 0.0
2016-Sep-24 19:33N 38°01' E 023°35'0 0.0
2016-Sep-24 18:33N 38°01' E 023°35'0 0.0
2016-Sep-24 17:34N 38°01' E 023°35'0 0.0
2016-Sep-24 16:33N 38°01' E 023°35'4 2.0
2016-Sep-24 14:33N 37°57' E 023°36'0 0.1
2016-Sep-24 12:33N 37°57' E 023°37'0 0.0
2016-Sep-24 10:33N 37°57' E 023°37'0 0.0
2016-Sep-24 09:33N 37°57' E 023°37'2 0.3
2016-Sep-24 03:33N 37°56' E 023°38'2 0.2
2016-Sep-23 17:33N 37°57' E 023°37'0 0.0
2016-Sep-23 16:33N 37°57' E 023°37'7 6.5
2016-Sep-23 15:33N 38°02' E 023°30'2 0.8
2016-Sep-23 13:33N 38°02' E 023°32'1 0.3
2016-Sep-23 09:33N 38°02' E 023°31'6 2.1
2016-Sep-23 06:33N 37°57' E 023°37'0 0.0
2016-Sep-22 12:16N 37°57' E 023°37'0 0.0
2016-Sep-21 19:29N 37°57' E 023°37'4 1.3
2016-Sep-21 16:34N 38°00' E 023°33'2 0.3
2016-Sep-21 09:33N 37°58' E 023°33'3 3.2
2016-Sep-21 08:33N 37°57' E 023°37'0 0.0
2016-Sep-21 05:33N 37°57' E 023°37'0 0.2
2016-Sep-21 03:33N 37°57' E 023°36'0 0.3
2016-Sep-21 02:33N 37°57' E 023°37'0 0.0
2016-Sep-19 13:19N 37°57' E 023°37'0 0.0
2016-Sep-19 12:33N 37°57' E 023°37'0 0.0
2016-Sep-19 11:33N 37°57' E 023°37'0 0.0
2016-Sep-19 09:33N 37°57' E 023°37'2 1.2
2016-Sep-19 07:33N 37°57' E 023°34'2 2.1
2016-Sep-19 06:33N 37°57' E 023°36'0 0.2
2016-Sep-19 03:33N 37°57' E 023°37'0 0.1
2016-Sep-19 02:33N 37°57' E 023°37'0 0.0
2016-Sep-19 00:33N 37°57' E 023°37'0 0.0
2016-Sep-18 19:33N 37°57' E 023°37'  

Dump ship's entire track history